createdAt,value
2018-07-11T00:00:26.651Z,3.60
2018-07-11T00:02:54.767Z,3.63
2018-07-11T00:05:22.991Z,4.00
2018-07-11T00:07:51.187Z,4.40
2018-07-11T00:10:19.527Z,3.70
2018-07-11T00:12:47.647Z,3.50
2018-07-11T00:15:15.795Z,4.37
2018-07-11T00:17:44.069Z,3.90
2018-07-11T00:20:12.212Z,4.20
2018-07-11T00:22:40.538Z,4.13
2018-07-11T00:25:08.734Z,3.10
2018-07-11T00:27:36.837Z,3.70
2018-07-11T00:30:05.169Z,4.20
2018-07-11T00:32:33.286Z,3.70
2018-07-11T00:35:01.417Z,3.80
2018-07-11T00:37:29.703Z,4.10
2018-07-11T00:39:57.655Z,3.70
2018-07-11T00:42:26.245Z,4.80
2018-07-11T00:44:54.375Z,3.10
2018-07-11T00:47:22.487Z,3.40
2018-07-11T00:49:50.607Z,3.80
2018-07-11T00:52:19.083Z,3.77
2018-07-11T00:54:47.184Z,3.90
2018-07-11T00:57:16.268Z,3.67
2018-07-11T00:59:44.391Z,4.90
2018-07-11T01:02:12.529Z,4.53
2018-07-11T01:04:40.733Z,4.83
2018-07-11T01:07:08.875Z,5.20
2018-07-11T01:09:44.861Z,5.23
2018-07-11T01:12:12.986Z,5.70
2018-07-11T01:14:41.591Z,5.00
2018-07-11T01:17:14.050Z,4.13
2018-07-11T01:19:43.072Z,4.50
2018-07-11T01:22:11.166Z,4.20
2018-07-11T01:24:40.396Z,4.47
2018-07-11T01:27:09.097Z,4.80
2018-07-11T01:29:37.173Z,5.20
2018-07-11T01:32:05.274Z,5.00
2018-07-11T01:34:33.963Z,4.00
2018-07-11T01:37:02.607Z,4.40
2018-07-11T01:39:30.717Z,4.40
2018-07-11T01:41:58.807Z,4.40
2018-07-11T01:44:26.962Z,4.70
2018-07-11T01:46:55.079Z,4.23
2018-07-11T01:49:23.223Z,4.50
2018-07-11T01:52:03.076Z,5.03
2018-07-11T01:54:32.995Z,5.37
2018-07-11T01:57:02.118Z,6.80
2018-07-11T01:59:33.466Z,13.13
2018-07-11T02:02:02.003Z,6.10
2018-07-11T02:04:30.932Z,5.00
2018-07-11T02:07:01.198Z,4.50
2018-07-11T02:09:29.721Z,4.60
2018-07-11T02:11:57.849Z,4.63
2018-07-11T02:14:25.971Z,4.90
2018-07-11T02:16:56.024Z,5.40
2018-07-11T02:19:24.102Z,5.03
2018-07-11T02:21:52.781Z,4.60
2018-07-11T02:24:23.372Z,5.30
2018-07-11T02:26:52.912Z,4.50
2018-07-11T02:29:21.158Z,4.27
2018-07-11T02:31:49.303Z,4.73
2018-07-11T02:34:20.787Z,4.10
2018-07-11T02:36:48.964Z,4.70
2018-07-11T02:39:17.050Z,4.03
2018-07-11T02:41:45.266Z,4.13
2018-07-11T02:44:14.513Z,4.43
2018-07-11T02:46:48.055Z,4.73
2018-07-11T02:49:16.918Z,4.20
2018-07-11T02:51:45.066Z,4.53
2018-07-11T02:54:13.295Z,4.47
2018-07-11T02:56:42.678Z,3.83
2018-07-11T02:59:10.783Z,4.30
2018-07-11T03:01:38.929Z,4.80
2018-07-11T03:04:07.036Z,4.87
2018-07-11T03:06:35.222Z,5.20
2018-07-11T03:09:03.991Z,5.33
2018-07-11T03:11:32.151Z,5.30
2018-07-11T03:14:00.054Z,4.77
2018-07-11T03:16:29.334Z,5.40
2018-07-11T03:18:58.662Z,5.57
2018-07-11T03:21:27.626Z,5.30
2018-07-11T03:23:55.744Z,4.20
2018-07-11T03:26:23.827Z,5.20
2018-07-11T03:28:51.972Z,4.37
2018-07-11T03:31:19.984Z,4.70
2018-07-11T03:33:48.327Z,5.30
2018-07-11T03:36:16.708Z,4.87
2018-07-11T03:38:44.842Z,5.10
2018-07-11T03:41:12.983Z,4.70
2018-07-11T03:43:42.066Z,6.67
2018-07-11T03:46:10.154Z,4.97
2018-07-11T03:48:38.657Z,5.30
2018-07-11T03:51:06.831Z,4.50
2018-07-11T03:53:34.964Z,4.50
2018-07-11T03:56:03.494Z,5.60
2018-07-11T03:58:31.616Z,4.83
2018-07-11T04:00:59.881Z,4.80
2018-07-11T04:03:28.120Z,5.53
2018-07-11T04:05:56.266Z,6.10
2018-07-11T04:08:24.454Z,5.03
2018-07-11T04:10:52.691Z,5.47
2018-07-11T04:13:21.055Z,5.80
2018-07-11T04:15:49.222Z,5.30
2018-07-11T04:18:27.471Z,5.80
2018-07-11T04:20:55.750Z,6.23
2018-07-11T04:23:24.111Z,6.57
2018-07-11T04:25:52.711Z,7.43
2018-07-11T04:28:22.903Z,6.30
2018-07-11T04:30:51.212Z,7.13
2018-07-11T04:33:19.310Z,6.63
2018-07-11T04:35:49.333Z,6.80
2018-07-11T04:38:17.479Z,6.37
2018-07-11T04:40:46.713Z,6.00
2018-07-11T04:43:15.376Z,6.73
2018-07-11T04:45:43.651Z,7.20
2018-07-11T04:48:11.773Z,7.37
2018-07-11T04:50:41.527Z,6.97
2018-07-11T04:53:11.059Z,6.60
2018-07-11T04:55:39.810Z,6.57
2018-07-11T04:58:08.825Z,6.03
2018-07-11T05:00:37.059Z,6.23
2018-07-11T05:03:05.189Z,6.00
2018-07-11T05:05:33.319Z,4.50
2018-07-11T05:08:01.420Z,5.77
2018-07-11T05:10:29.668Z,5.70
2018-07-11T05:12:58.017Z,5.70
2018-07-11T05:15:27.380Z,5.60
2018-07-11T05:17:56.373Z,5.93
2018-07-11T05:20:25.352Z,5.33
2018-07-11T05:22:53.600Z,4.97
2018-07-11T05:25:23.109Z,5.97
2018-07-11T05:27:51.279Z,5.17
2018-07-11T05:30:20.361Z,5.00
2018-07-11T05:32:49.683Z,4.57
2018-07-11T05:35:17.931Z,5.10
2018-07-11T05:37:46.111Z,4.90
2018-07-11T05:40:14.226Z,5.10
2018-07-11T05:42:42.392Z,4.90
2018-07-11T05:45:11.658Z,5.13
2018-07-11T05:47:39.784Z,5.23
2018-07-11T05:50:08.122Z,5.00
2018-07-11T05:52:36.325Z,5.00
2018-07-11T05:55:05.215Z,4.90
2018-07-11T05:57:33.404Z,5.00
2018-07-11T06:00:01.354Z,4.60
2018-07-11T06:02:29.430Z,4.10
2018-07-11T06:04:57.664Z,4.73
2018-07-11T06:07:25.838Z,4.17
2018-07-11T06:09:54.019Z,4.10
2018-07-11T06:12:22.712Z,4.13
2018-07-11T06:14:50.988Z,3.83
2018-07-11T06:17:20.406Z,3.77
2018-07-11T06:19:48.570Z,5.40
2018-07-11T06:22:19.525Z,4.50
2018-07-11T06:24:48.375Z,4.27
2018-07-11T06:27:16.278Z,4.43
2018-07-11T06:29:46.196Z,4.90
2018-07-11T06:32:14.432Z,5.10
2018-07-11T06:34:42.552Z,4.53
2018-07-11T06:37:10.685Z,4.57
2018-07-11T06:39:40.090Z,3.90
2018-07-11T06:42:08.862Z,4.40
2018-07-11T06:44:37.155Z,4.33
2018-07-11T06:47:10.803Z,4.30
2018-07-11T06:49:39.116Z,4.50
2018-07-11T06:52:07.371Z,4.13
2018-07-11T06:54:35.405Z,4.70
2018-07-11T06:57:03.591Z,4.30
2018-07-11T06:59:31.906Z,4.50
2018-07-11T07:02:00.106Z,4.40
2018-07-11T07:04:28.363Z,4.17
2018-07-11T07:06:56.493Z,3.33
2018-07-11T07:09:24.659Z,3.40
2018-07-11T07:11:53.004Z,3.87
2018-07-11T07:14:21.155Z,3.73
2018-07-11T07:16:49.289Z,3.70
2018-07-11T07:19:17.437Z,3.87
2018-07-11T07:21:46.091Z,4.17
2018-07-11T07:24:14.180Z,3.80
2018-07-11T07:26:42.350Z,3.60
2018-07-11T07:29:10.453Z,3.30
2018-07-11T07:31:38.705Z,3.97
2018-07-11T07:34:06.978Z,3.87
2018-07-11T07:36:35.111Z,3.40
2018-07-11T07:39:04.482Z,2.77
2018-07-11T07:41:32.712Z,3.20
2018-07-11T07:44:01.847Z,2.87
2018-07-11T07:46:30.117Z,3.37
2018-07-11T07:48:58.214Z,3.63
2018-07-11T07:51:26.341Z,5.13
2018-07-11T07:53:55.335Z,4.37
2018-07-11T07:56:23.452Z,4.30
2018-07-11T07:58:51.358Z,4.30
2018-07-11T08:01:19.494Z,4.77
2018-07-11T08:03:47.736Z,4.20
2018-07-11T08:06:15.855Z,4.00
2018-07-11T08:08:43.976Z,4.40
2018-07-11T08:11:12.231Z,4.30
2018-07-11T08:13:41.081Z,4.33
2018-07-11T08:16:09.250Z,3.97
2018-07-11T08:18:37.470Z,4.47
2018-07-11T08:21:05.797Z,4.00
2018-07-11T08:23:45.921Z,4.03
2018-07-11T08:26:25.971Z,3.10
2018-07-11T08:31:22.526Z,3.50
2018-07-11T08:34:04.106Z,2.80
2018-07-11T08:36:45.840Z,2.80
2018-07-11T08:41:29.908Z,2.57
2018-07-11T08:44:23.220Z,2.77
2018-07-11T08:47:54.952Z,2.87
2018-07-11T08:50:33.291Z,2.83
2018-07-11T08:54:10.425Z,3.03
2018-07-11T08:56:50.958Z,2.20
2018-07-11T09:00:31.468Z,2.37
2018-07-11T09:03:10.338Z,2.60
2018-07-11T09:05:50.569Z,2.80
2018-07-11T09:08:30.646Z,1.93
2018-07-11T09:12:23.488Z,2.50
2018-07-11T09:15:03.870Z,2.33
2018-07-11T09:19:50.254Z,2.20
2018-07-11T09:22:31.288Z,2.30
2018-07-11T09:25:00.077Z,2.30
2018-07-11T09:27:28.190Z,2.60
2018-07-11T09:29:56.318Z,2.43
2018-07-11T09:32:24.442Z,2.43
2018-07-11T09:34:52.614Z,3.87
2018-07-11T09:37:20.924Z,1.77
2018-07-11T09:39:49.061Z,2.00
2018-07-11T09:42:17.461Z,2.03
2018-07-11T09:44:45.682Z,2.40
2018-07-11T09:47:19.452Z,2.40
2018-07-11T09:49:47.598Z,2.50
2018-07-11T09:52:15.705Z,1.97
2018-07-11T09:54:43.838Z,2.20
2018-07-11T09:57:12.384Z,1.63
2018-07-11T09:59:40.531Z,1.50
2018-07-11T10:02:08.702Z,2.00
2018-07-11T10:04:36.820Z,1.67
2018-07-11T10:07:06.679Z,1.53
2018-07-11T10:09:34.905Z,1.90
2018-07-11T10:12:03.314Z,3.60
2018-07-11T10:14:31.478Z,2.10
2018-07-11T10:16:59.605Z,1.50
2018-07-11T10:19:28.052Z,1.80
2018-07-11T10:21:56.356Z,2.00
2018-07-11T10:24:24.482Z,2.20
2018-07-11T10:26:52.615Z,1.60
2018-07-11T10:29:20.758Z,2.20
2018-07-11T10:31:48.915Z,1.93
2018-07-11T10:34:17.087Z,1.80
2018-07-11T10:36:45.215Z,1.67
2018-07-11T10:39:14.251Z,2.00
2018-07-11T10:41:44.606Z,1.97
2018-07-11T10:44:12.759Z,1.80
2018-07-11T10:46:40.941Z,1.87
2018-07-11T10:49:09.106Z,2.20
2018-07-11T10:51:37.307Z,1.60
2018-07-11T10:54:05.500Z,2.40
2018-07-11T10:56:33.651Z,1.90
2018-07-11T10:59:01.843Z,1.97
2018-07-11T11:01:29.936Z,1.93
2018-07-11T11:03:58.097Z,2.07
2018-07-11T11:06:26.413Z,2.23
2018-07-11T11:08:54.407Z,2.00
2018-07-11T11:11:22.531Z,2.13
2018-07-11T11:13:50.679Z,2.17
2018-07-11T11:16:19.821Z,2.40
2018-07-11T11:18:47.957Z,2.20
2018-07-11T11:21:16.704Z,1.67
2018-07-11T11:23:44.862Z,1.80
2018-07-11T11:26:12.946Z,2.47
2018-07-11T11:28:41.123Z,2.20
2018-07-11T11:31:09.259Z,1.80
2018-07-11T11:33:37.403Z,2.10
2018-07-11T11:36:06.839Z,1.93
2018-07-11T11:38:35.099Z,1.80
2018-07-11T11:41:03.226Z,1.97
2018-07-11T11:43:31.365Z,1.83
2018-07-11T11:45:59.496Z,2.80
2018-07-11T11:48:27.840Z,1.83
2018-07-11T11:50:56.190Z,2.20
2018-07-11T11:53:24.316Z,2.07
2018-07-11T11:55:53.399Z,2.07
2018-07-11T11:58:21.603Z,2.37
2018-07-11T12:00:49.952Z,1.80
2018-07-11T12:03:18.097Z,2.40
2018-07-11T12:05:46.228Z,1.53
2018-07-11T12:08:14.188Z,2.30
2018-07-11T12:10:42.324Z,2.37
2018-07-11T12:13:10.470Z,2.30
2018-07-11T12:15:39.773Z,2.23
2018-07-11T12:18:07.914Z,2.20
2018-07-11T12:20:36.280Z,2.30
2018-07-11T12:23:05.764Z,2.50
2018-07-11T12:25:35.067Z,2.03
2018-07-11T12:28:03.190Z,1.80
2018-07-11T12:30:31.334Z,2.00
2018-07-11T12:32:59.513Z,2.27
2018-07-11T12:35:27.668Z,2.20
2018-07-11T12:37:55.782Z,1.93
2018-07-11T12:40:23.894Z,2.30
2018-07-11T12:42:51.983Z,2.07
2018-07-11T12:45:20.102Z,1.83
2018-07-11T12:47:53.696Z,2.00
2018-07-11T12:50:21.828Z,2.47
2018-07-11T12:52:51.443Z,1.90
2018-07-11T12:55:19.589Z,2.33
2018-07-11T12:57:47.780Z,1.90
2018-07-11T13:00:15.975Z,1.90
2018-07-11T13:02:45.112Z,2.10
2018-07-11T13:05:13.857Z,1.67
2018-07-11T13:07:42.522Z,1.90
2018-07-11T13:10:10.731Z,2.40
2018-07-11T13:12:39.262Z,2.10
2018-07-11T13:15:07.349Z,1.73
2018-07-11T13:17:36.576Z,1.90
2018-07-11T13:20:04.750Z,1.90
2018-07-11T13:22:32.878Z,1.70
2018-07-11T13:25:02.196Z,2.40
2018-07-11T13:27:31.150Z,2.50
2018-07-11T13:29:59.612Z,1.97
2018-07-11T13:32:30.607Z,2.47
2018-07-11T13:34:58.709Z,1.70
2018-07-11T13:37:27.166Z,2.47
2018-07-11T13:39:55.369Z,1.90
2018-07-11T13:42:23.496Z,2.00
2018-07-11T13:44:53.286Z,2.27
2018-07-11T13:47:26.270Z,1.83
2018-07-11T13:49:54.529Z,2.10
2018-07-11T13:52:23.790Z,2.37
2018-07-11T13:54:51.955Z,2.43
2018-07-11T13:57:21.507Z,2.63
2018-07-11T13:59:49.589Z,2.23
2018-07-11T14:02:17.951Z,2.70
2018-07-11T14:04:46.199Z,2.33
2018-07-11T14:07:14.098Z,2.47
2018-07-11T14:09:42.273Z,2.27
2018-07-11T14:12:10.419Z,2.60
2018-07-11T14:14:38.782Z,2.27
2018-07-11T14:17:07.521Z,2.83
2018-07-11T14:19:36.071Z,2.33
2018-07-11T14:22:06.320Z,2.70
2018-07-11T14:24:36.250Z,4.47
2018-07-11T14:27:05.123Z,2.50
2018-07-11T14:29:33.605Z,2.60
2018-07-11T14:32:01.831Z,3.77
2018-07-11T14:34:29.961Z,3.17
2018-07-11T14:36:58.802Z,3.60
2018-07-11T14:39:28.307Z,3.07
2018-07-11T14:41:56.472Z,3.43
2018-07-11T14:44:24.574Z,3.10
2018-07-11T14:46:52.820Z,3.17
2018-07-11T14:49:20.951Z,3.80
2018-07-11T14:51:49.207Z,4.20
2018-07-11T14:54:17.499Z,26.10
2018-07-11T14:56:46.068Z,3.43
2018-07-11T14:59:14.205Z,9.03
2018-07-11T15:01:43.156Z,8.30
2018-07-11T15:04:11.411Z,6.43
2018-07-11T15:06:40.221Z,3.40
2018-07-11T15:09:08.732Z,3.43
2018-07-11T15:11:36.611Z,3.23
2018-07-11T15:14:04.789Z,2.60
2018-07-11T15:16:33.027Z,3.03
2018-07-11T15:19:02.347Z,3.17
2018-07-11T15:21:30.471Z,3.20
2018-07-11T15:23:58.901Z,2.60
2018-07-11T15:26:27.303Z,3.03
2018-07-11T15:28:55.481Z,2.77
2018-07-11T15:31:24.776Z,4.60
2018-07-11T15:33:53.766Z,2.53
2018-07-11T15:36:21.954Z,3.77
2018-07-11T15:38:50.243Z,2.63
2018-07-11T15:41:18.402Z,2.40
2018-07-11T15:43:46.975Z,2.70
2018-07-11T15:46:15.311Z,3.30
2018-07-11T15:48:43.509Z,3.27
2018-07-11T15:51:11.660Z,3.23
2018-07-11T15:53:39.798Z,3.97
2018-07-11T15:56:08.095Z,2.83
2018-07-11T15:58:37.283Z,2.70
2018-07-11T16:01:08.128Z,2.70
2018-07-11T16:03:38.022Z,2.90
2018-07-11T16:06:07.664Z,3.30
2018-07-11T16:08:36.143Z,2.97
2018-07-11T16:11:04.497Z,2.10
2018-07-11T16:13:32.901Z,2.37
2018-07-11T16:16:01.222Z,2.47
2018-07-11T16:18:29.523Z,2.67
2018-07-11T16:20:57.756Z,2.40
2018-07-11T16:23:26.488Z,2.80
2018-07-11T16:25:54.654Z,2.40
2018-07-11T16:28:22.808Z,2.90
2018-07-11T16:30:51.024Z,2.70
2018-07-11T16:33:19.201Z,2.50
2018-07-11T16:35:48.026Z,2.73
2018-07-11T16:38:15.956Z,2.77
2018-07-11T16:40:44.062Z,3.20
2018-07-11T16:43:12.802Z,3.23
2018-07-11T16:45:40.979Z,3.73
2018-07-11T16:48:09.180Z,3.17
2018-07-11T16:50:37.792Z,3.17
2018-07-11T16:53:08.082Z,3.30
2018-07-11T16:55:37.022Z,3.20
2018-07-11T16:58:05.194Z,3.00
2018-07-11T17:00:34.480Z,3.00
2018-07-11T17:03:11.559Z,3.20
2018-07-11T17:05:48.046Z,3.40
2018-07-11T17:08:17.806Z,3.23
2018-07-11T17:10:46.072Z,2.90
2018-07-11T17:13:21.628Z,3.17
2018-07-11T17:15:51.550Z,3.00
2018-07-11T17:18:32.477Z,3.13
2018-07-11T17:21:05.457Z,2.87
2018-07-11T17:23:33.914Z,2.90
2018-07-11T17:26:02.123Z,2.60
2018-07-11T17:28:30.280Z,2.83
2018-07-11T17:30:58.406Z,3.80
2018-07-11T17:33:27.529Z,3.10
2018-07-11T17:35:55.732Z,3.20
2018-07-11T17:38:25.886Z,3.00
2018-07-11T17:40:55.275Z,3.00
2018-07-11T17:43:32.674Z,3.00
2018-07-11T17:46:01.182Z,3.53
2018-07-11T17:48:40.519Z,3.20
2018-07-11T17:52:13.432Z,2.70
2018-07-11T17:54:47.305Z,3.07
2018-07-11T17:57:22.793Z,3.73
2018-07-11T17:59:51.478Z,4.40
2018-07-11T18:02:22.582Z,2.73
2018-07-11T18:05:08.131Z,3.60
2018-07-11T18:07:46.144Z,3.30
2018-07-11T18:10:24.803Z,3.27
2018-07-11T18:12:56.670Z,2.70
2018-07-11T18:15:38.305Z,2.60
2018-07-11T18:18:42.213Z,2.70
2018-07-11T18:21:18.339Z,3.30
2018-07-11T18:23:57.311Z,2.97
2018-07-11T18:27:40.725Z,3.40
2018-07-11T18:30:42.663Z,3.60
2018-07-11T18:33:21.016Z,2.47
2018-07-11T18:35:58.046Z,3.23
2018-07-11T18:38:42.776Z,2.70
2018-07-11T18:41:23.125Z,3.33
2018-07-11T18:43:56.962Z,3.10
2018-07-11T18:47:32.640Z,3.63
2018-07-11T18:50:40.096Z,3.10
2018-07-11T18:53:15.615Z,3.20
2018-07-11T18:57:12.010Z,3.37
2018-07-11T19:00:52.095Z,3.27
2018-07-11T19:04:13.193Z,3.40
2018-07-11T19:06:46.934Z,4.00
2018-07-11T19:09:38.410Z,3.97
2018-07-11T19:12:30.860Z,4.20
2018-07-11T19:15:14.897Z,3.73
2018-07-11T19:18:06.470Z,3.67
2018-07-11T19:20:38.577Z,4.13
2018-07-11T19:23:35.303Z,3.43
2018-07-11T19:26:11.807Z,3.87
2018-07-11T19:28:48.702Z,4.00
2018-07-11T19:31:21.149Z,4.10
2018-07-11T19:34:02.368Z,3.73
2018-07-11T19:36:46.953Z,3.77
2018-07-11T19:39:33.201Z,4.67
2018-07-11T19:43:08.981Z,3.73
2018-07-11T19:45:46.445Z,4.30
2018-07-11T19:49:01.079Z,3.80
2018-07-11T19:51:38.374Z,3.50
2018-07-11T19:54:18.322Z,3.20
2018-07-11T19:56:47.736Z,3.13
2018-07-11T19:59:16.202Z,3.20
2018-07-11T20:01:45.365Z,3.30
2018-07-11T20:04:14.503Z,3.30
2018-07-11T20:06:44.106Z,3.40
2018-07-11T20:09:12.520Z,3.63
2018-07-11T20:11:41.566Z,3.20
2018-07-11T20:14:09.781Z,3.67
2018-07-11T20:16:38.022Z,4.87
2018-07-11T20:19:06.264Z,3.43
2018-07-11T20:21:34.390Z,3.83
2018-07-11T20:24:02.552Z,4.37
2018-07-11T20:26:30.827Z,3.60
2018-07-11T20:28:58.926Z,5.20
2018-07-11T20:31:27.096Z,4.90
2018-07-11T20:33:55.440Z,3.80
2018-07-11T20:36:23.650Z,4.03
2018-07-11T20:38:51.872Z,4.40
2018-07-11T20:41:20.090Z,5.73
2018-07-11T20:43:48.320Z,5.70
2018-07-11T20:46:17.459Z,5.60
2018-07-11T20:48:45.491Z,6.83
2018-07-11T20:51:14.426Z,5.07
2018-07-11T20:53:42.576Z,7.07
2018-07-11T20:56:10.746Z,6.17
2018-07-11T20:58:50.652Z,5.60
2018-07-11T21:01:30.551Z,6.03
2018-07-11T21:06:21.015Z,6.60
2018-07-11T21:11:41.159Z,6.83
2018-07-11T21:14:23.018Z,6.97
2018-07-11T21:18:06.181Z,6.97
2018-07-11T21:20:34.388Z,7.10
2018-07-11T21:23:02.623Z,7.67
2018-07-11T21:25:31.725Z,7.87
2018-07-11T21:27:59.896Z,7.83
2018-07-11T21:30:28.055Z,7.77
2018-07-11T21:32:56.070Z,7.57
2018-07-11T21:35:25.188Z,7.73
2018-07-11T21:37:53.398Z,7.93
2018-07-11T21:40:21.530Z,7.70
2018-07-11T21:42:49.730Z,7.70
2018-07-11T21:45:18.036Z,6.60
2018-07-11T21:47:46.344Z,8.60
2018-07-11T21:50:14.561Z,6.80
2018-07-11T21:52:42.744Z,6.97
2018-07-11T21:55:11.009Z,7.50
2018-07-11T21:57:39.163Z,6.83
2018-07-11T22:00:07.499Z,6.33
2018-07-11T22:02:35.467Z,7.33
2018-07-11T22:05:03.854Z,7.87
2018-07-11T22:07:31.815Z,6.53
2018-07-11T22:09:59.957Z,6.00
2018-07-11T22:12:28.140Z,7.20
2018-07-11T22:14:57.583Z,6.70
2018-07-11T22:17:37.053Z,7.10
2018-07-11T22:20:04.291Z,6.37
2018-07-11T22:22:31.508Z,6.10
2018-07-11T22:24:58.755Z,5.90
2018-07-11T22:27:25.973Z,6.30
2018-07-11T22:29:53.323Z,5.33
2018-07-11T22:32:20.534Z,5.27
2018-07-11T22:34:47.991Z,5.57
2018-07-11T22:37:15.183Z,5.50
2018-07-11T22:39:42.419Z,5.10
2018-07-11T22:42:09.624Z,6.00
2018-07-11T22:44:36.863Z,5.47
2018-07-11T22:47:04.080Z,5.80
2018-07-11T22:49:32.478Z,5.43
2018-07-11T22:51:59.684Z,5.30
2018-07-11T22:54:26.910Z,5.10
2018-07-11T22:56:54.114Z,4.97
2018-07-11T22:59:21.607Z,5.87
2018-07-11T23:01:48.833Z,5.10
2018-07-11T23:04:17.363Z,5.77
2018-07-11T23:06:44.644Z,5.47
2018-07-11T23:09:11.817Z,5.40
2018-07-11T23:11:39.335Z,6.07
2018-07-11T23:14:07.628Z,5.80
2018-07-11T23:16:34.949Z,11.00
2018-07-11T23:19:02.161Z,7.17
2018-07-11T23:21:29.387Z,6.00
2018-07-11T23:23:56.623Z,7.10
2018-07-11T23:26:24.147Z,7.20
2018-07-11T23:28:52.593Z,6.67
2018-07-11T23:31:19.810Z,6.20
2018-07-11T23:33:47.068Z,5.87
2018-07-11T23:36:14.312Z,6.10
2018-07-11T23:38:41.607Z,5.27
2018-07-11T23:41:08.815Z,5.63
2018-07-11T23:43:37.746Z,5.67
2018-07-11T23:46:05.020Z,6.30
2018-07-11T23:48:32.466Z,5.80
2018-07-11T23:50:59.674Z,5.80
2018-07-11T23:53:26.900Z,6.20
2018-07-11T23:55:54.132Z,6.40
2018-07-11T23:58:21.328Z,6.17
